West Lafayette, IN

8:44 AM EST on January 16, 2017 (GMT -0500)
Happy Hollow Road | | Change Station
Active Advisory: Flood Warning

Elev 554 ft 40.44 °N, 86.90 °W | Updated 4 minutes ago

Overcast
Overcast
35.1 °F
Feels Like 35 °F
N
2.5
Wind Variable Wind from West
Gusts 5.0 mph

Today
High -- | Low -- °F
--% Chance of Precip.
Yesterday
High -- | Low -- °F
Precip. -- in
Pressure 30.26 in
Visibility 2.0 miles
Clouds Mostly Cloudy 700 ft
Overcast 1600 ft
Windchill 35 °F
Dew Point 35 °F
Humidity 98%
Rainfall 0.00 in
Snow Depth Not available.
8:08 AM 5:47 PM
Waning Gibbous, 81% visible
METAR KLAF 161254Z 10004KT 2SM BR BKN007 OVC016 01/01 A3024 RMK AO2 SLP246 T00110011
Pressure 30.26 in
Visibility 2.0 miles
Clouds Mostly Cloudy 700 ft
Overcast 1600 ft
Windchill 35 °F
Dew Point 35 °F
Humidity 98%
Rainfall 0.00 in
Snow Depth Not available.
8:08 AM 5:47 PM
Waning Gibbous, 81% visible
METAR KLAF 161254Z 10004KT 2SM BR BKN007 OVC016 01/01 A3024 RMK AO2 SLP246 T00110011

Get Your Daily Forecast Email!

Thanks for signing up!

Be on the lookout for a verification email in your inbox.

You'll start receiving the daily forecast at 8 AM.

×

10-Day Weather Forecast

Almanac

Astronomy

Jan. 16, 2017 Rise Set
Actual Time
Civil Twilight
Nautical Twilight
Astronomical Twilight
Moon
Length of Visible Light
Length of Day
Tomorrow will be .
, % of the Moon is Illuminated

Today's Extremes

State Highs State Lows

Community

WunderPhotos

Upload Photos

1,962,540 photos uploaded!

WunderBlog® & News

Nearby

Air Quality

  Air Quality AQ Index Pollutant
Not available.

Snow Depth

Station Depth Elevation

Earthquake Activity

City Distance Mag. Time & Date
Minimum magnitude displayed is 2.5.

Coastal Water Temperatures

Place Temperature

Stations

Nearby Weather Stations

Station Location Temp. Windchill Dew Point Humidity Wind Precip. Elev Updated Type
                   

Watches & Warnings

Flood Warning
Issued: 4:08 AM GMT Jan. 16, 2017 – National Weather Service

The Flood Warning continues for
the Wabash River at Lafayette.
* Until further notice.
* At 10:46 PM Sunday the stage was 11.7 feet.
* Flood stage is 11.0 feet.
* Minor flooding is occurring and minor flooding is forecast.
* Forecast... the river will continue rising to near 12.5 feet by
Wednesday evening then begin falling.
* At 12.0 feet... high water affects a few low river Cabins and County
roads.


Lat... Lon 4056 8673 4048 8688 4040 8709 4033 8709
      4040 8688 4054 8670